Tiempo atmosférico en la estación meteorológica de Badajoz Aeropuerto, Badajoz (185 m.)

Fecha
DESCASC
Temp. máxima en grados centígrados (hora)
DESCASC
Temp. mínima en grados centígrados (hora)
DESCASC
Temp. media en grados centígrados
DESCASC
Racha de viento máxima en m/sg (hora)
DESCASC
Velocidad máxima media en intervalos de 10 minutos(hora)
DESCASC
Precipitaciones diarias en mm
DESCASC
Precipitaciones de 00:00 a 06:00 en mm
DESCASC
Precipitaciones de 06:00 a 12:00 en mm
DESCASC
Precipitaciones de 12:00 a 18:00 en mm
DESCASC
Precipitaciones de 18:00 a 24:00 en mm
DESCASC
17-09-2017 27.6 (18:30) 10.2 (08:20) 18.9 7.22 (23:50) 4.44 (23:50) 0 0 0 0 0
16-09-2017 28 (16:40) 10.6 (08:00) 19.3 7.78 (16:00) 5 (00:30) 0 0 0 0 0
15-09-2017 27.2 (16:30) 12 (08:00) 19.6 12.22 (17:10) 7.78 (14:40) 0 0 0 0 0
14-09-2017 32.3 (16:40) 15 (00:00) 23.6 10.28 (21:10) 6.39 (22:00) 0 0 0 0 0
13-09-2017 35.1 (17:30) 17.6 (00:00) 26.3 6.67 (16:10) 3.61 (23:00) 0 0 0 0 0
12-09-2017 33.1 (18:10) 16.2 (00:00) 24.6 12.78 (15:20) 5.28 (13:40) 0 0 0 0 0
11-09-2017 34.8 (17:50) 15.9 (00:00) 25.3 7.78 (18:30) 5.28 (21:00) 0 0 0 0 0
10-09-2017 29.2 (19:20) 13.3 (00:00) 21.3 7.78 (14:10) 5.56 (01:40) 0 0 0 0 0
09-09-2017 28.4 (16:30) 16.2 (00:00) 22.3 15 (16:50) 9.17 (16:40) 0 0 0 0 0
08-09-2017 36.4 (16:20) 15.7 (00:00) 26.1 10 (18:10) 6.39 (18:40) 0 0 0 0 0
07-09-2017 36.9 (17:50) 21.5 (00:00) 29.2 7.5 (18:30) 5 (19:00) 0 0 0 0 0
06-09-2017 37.4 (18:30) 17.9 (00:00) 27.7 5.28 (22:40) 3.33 (22:40) 0 0 0 0 0
05-09-2017 35.2 (18:10) 16.6 (00:00) 25.9 7.22 (00:20) 3.89 (03:30) 0 0 0 0 0
04-09-2017 32.3 (18:10) 16.4 (00:00) 24.3 8.33 (16:30) 4.17 (16:10) 0 0 0 0 0
03-09-2017 36 (17:40) 17.7 (00:00) 26.9 10.28 (17:30) 7.5 (18:30) 0 0 0 0 0
02-09-2017 34.1 (17:10) 16.6 (00:00) 25.3 8.61 (12:10) 5.56 (12:50) 0 0 0 0 0
01-09-2017 34.4 (16:40) 18.7 (00:00) 26.6 7.22 (15:40) 3.89 (17:40) 0 0 0 0 0
31-08-2017 32.2 (18:40) 16.2 (00:00) 24.2 5 (01:40) 3.61 (00:20) 0 0 0 0 0
30-08-2017 29.5 (17:20) 14.5 (00:00) 22 6.94 (22:50) 4.17 (23:50) 0 0 0 0 0
29-08-2017 28.7 (17:30) 16.7 (00:00) 22.7 14.17 (18:40) 10.28 (18:40) 7.6 1 0.8 0 5.8
28-08-2017 30.5 (17:50) 17.2 (00:00) 23.9 10.28 (20:10) 5.28 (20:10) 1 0 0 0 1
27-08-2017 32.4 (17:40) 20.7 (00:00) 26.6 9.72 (15:40) 5 (15:50) 0 0 0 0 0
26-08-2017 36.1 (17:20) 18.2 (00:00) 27.1 8.89 (16:20) 4.44 (22:10) 0 0 0 0 0
25-08-2017 36.5 (17:30) 16.6 (00:00) 26.6 7.78 (17:10) 3.89 (17:10) 0 0 0 0 0
24-08-2017 34.8 (17:10) 16.4 (00:00) 25.6 7.5 (17:50) 5 (19:50) 0 0 0 0 0
23-08-2017 39.1 (16:30) 19.6 (00:00) 29.3 8.89 (16:10) 4.44 (22:50) 0 0 0 0 0
22-08-2017 38.1 (17:20) 23.1 (00:00) 30.6 8.33 (13:40) 5 (19:20) 0 0 0 0 0

Gráficas

Temp. máximas Temp. mínimas Temp. medias Precipitaciones Rachas de viento máximas Velocidades máximas media en intervalos de 10 minutos

Datos horarios

Fecha y hora oficial Temperatura (ºC) Velocidad del viento (km/h) Dirección del viento Racha (km/h) Dirección de racha Precipitación (mm) Presión (hPa) Tendencia (hPa) Humedad (%)
2017-09-20 23:00:00 23.2 7 Oeste 12 Noroeste 0 994.1 0.6 38
2017-09-20 22:00:00 24.5 9 Oeste 19 Oeste 0 993.8 0.2 32
2017-09-20 21:00:00 26.7 5 Sudoeste 10 Oeste 0 993.4 -0.4 27
2017-09-20 20:00:00 29.4 7 Oeste 17 Sudoeste 0 993.5 -0.8 23
2017-09-20 19:00:00 31 6 Oeste 18 Noroeste 0 993.6 -1.4 23
2017-09-20 18:00:00 31.7 9 Oeste 24 Oeste 0 993.8 -2 24
2017-09-20 17:00:00 31.3 8 Oeste 21 Noroeste 0 994.3 -2.2 26
2017-09-20 16:00:00 30.9 8 Oeste 20 Noroeste 0 995 -2.3 25
2017-09-20 15:00:00 30.1 9 Noroeste 17 Noroeste 0 995.8 -1.8 26
2017-09-20 14:00:00 28.4 4 Sudeste 11 Este 0 996.5 -1.4 32
2017-09-20 13:00:00 25.1 6 Nordeste 12 Este 0 997.3 -0.3 44
2017-09-20 12:00:00 22.4 5 Este 10 Este 0 997.6 0.1 54
2017-09-20 11:00:00 19.1 6 Nordeste 10 Este 0 997.9 0.5 65
2017-09-20 10:00:00 15.6 3 Nordeste 5 Nordeste 0 997.6 0.3 78
2017-09-20 09:00:00 13.4 0 Calma 3 Noroeste 0 997.5 0.1 87
2017-09-20 08:00:00 13.6 2 Oeste 6 Oeste 0 997.4 -0.1 86
2017-09-20 07:00:00 13.9 4 Oeste 11 Oeste 0 997.3 -0.6 85
2017-09-20 06:00:00 15.5 5 Oeste 10 Oeste 0 997.4 -0.7 78
2017-09-20 05:00:00 16.4 4 Oeste 12 Sudoeste 0 997.5 -0.4 75
2017-09-20 04:00:00 16.9 5 Sudoeste 8 Oeste 0 997.9 0 73
2017-09-20 03:00:00 18.1 4 Oeste 16 Oeste 0 998.1 -0.1 68
2017-09-20 02:00:00 18.9 9 Oeste 14 Oeste 0 997.9 -0.2 65
2017-09-20 01:00:00 20.4 8 Oeste 16 Oeste 0 997.9 0 55
2017-09-20 00:00:00 21.4 8 Oeste 13 Oeste 0 998.2 0.8 43
2017-09-19 23:00:00 21.6 5 Sudoeste 7 Sudoeste 0 998.1 0.7 45
2017-09-19 22:00:00 22.3 3 Oeste 8 Sudoeste 0 997.9 0.5 41
2017-09-19 21:00:00 25.4 5 Sur 9 Sudoeste 0 997.4 -0.2 36
2017-09-19 20:00:00 27.7 3 Sudoeste 8 Sur 0 997.4 -0.7 32
2017-09-19 19:00:00 29.3 4 Sudoeste 12 Oeste 0 997.4 -1.4 28
2017-09-19 18:00:00 29.9 6 Oeste 13 Sudoeste 0 997.6 -1.9 28
2017-09-19 17:00:00 29.3 6 Noroeste 16 Oeste 0 998.1 -2.2 29
2017-09-19 16:00:00 28.1 6 Norte 20 Noroeste 0 998.8 -2.2 30
2017-09-19 15:00:00 27.4 5 Oeste 15 Noroeste 0 999.5 -1.9 32
2017-09-19 14:00:00 26.1 8 Noroeste 17 Noroeste 0 1000.3 -1.2 36
2017-09-19 13:00:00 24 4 Nordeste 11 Noroeste 0 1001 -0.2 45
2017-09-19 12:00:00 21.4 4 Noroeste 12 Noroeste 0 1001.4 0.7 56
2017-09-19 11:00:00 19 5 Oeste 13 Oeste 0 1001.5 1.3 67
2017-09-19 10:00:00 15.7 8 Oeste 14 Oeste 0 1001.2 1.1 82
2017-09-19 09:00:00 13.6 8 Oeste 11 Oeste 0 1000.7 0.7 90
2017-09-19 08:00:00 13.5 5 Sudoeste 9 Sudoeste 0 1000.2 0.4 86
2017-09-19 07:00:00 14.2 5 Sudoeste 13 Sudoeste 0 1000.1 0.1 85
2017-09-19 06:00:00 14.7 6 Oeste 15 Oeste 0 1000 -0.2 83
2017-09-19 05:00:00 15.4 7 Oeste 15 Sudoeste 0 999.8 -0.5 79
2017-09-19 04:00:00 15.9 8 Oeste 15 Oeste 0 1000 -0.5 75
2017-09-19 03:00:00 16.4 7 Oeste 17 Noroeste 0 1000.2 -0.2 74
2017-09-19 02:00:00 17.4 7 Oeste 16 Oeste 0 1000.3 0.3 70
2017-09-19 01:00:00 18.2 10 Oeste 19 Oeste 0 1000.5 1.2 66
2017-09-19 00:00:00 19.4 12 Oeste 24 Oeste 0 1000.4 1.9 60
2017-09-18 23:00:00 20.5 14 Oeste 22 Noroeste 0 1000 1.8 54
2017-09-18 22:00:00 22 11 Oeste 21 Oeste 0 999.3 1.3 47
2017-09-18 21:00:00 23.6 7 Oeste 18 Oeste 0 998.5 0.5 39
2017-09-18 20:00:00 25.2 13 Oeste 24 Noroeste 0 998.2 -0.1 36
2017-09-18 19:00:00 26.4 19 Noroeste 30 Noroeste 0 998 -0.7 35
2017-09-18 18:00:00 26.7 16 Oeste 36 Oeste 0 998 -1 33
2017-09-18 17:00:00 26.4 23 Noroeste 39 Noroeste 0 998.3 -1.1 33
2017-09-18 16:00:00 26 15 Oeste 38 Noroeste 0 998.7 -1 43
2017-09-18 15:00:00 25.7 17 Oeste 37 Sudoeste 0 999 -1.2 49
2017-09-18 14:00:00 25.7 18 Oeste 36 Noroeste 0 999.4 -0.5 49
2017-09-18 13:00:00 23.7 11 Oeste 24 Noroeste 0 999.7 0 51
2017-09-18 12:00:00 21.1 11 Oeste 18 Oeste 0 1000.2 1.1 54
2017-09-18 11:00:00 18.8 9 Oeste 18 Oeste 0 999.9 1.4 58
2017-09-18 10:00:00 15.6 10 Oeste 18 Oeste 0 999.7 1.7 70
2017-09-18 09:00:00 12.5 4 Sudoeste 10 Sudoeste 0 999.1 1.3 80
2017-09-18 08:00:00 11.9 4 Sudoeste 12 Oeste 0 998.5 0.8 81
2017-09-18 07:00:00 11.8 5 Sudoeste 12 Oeste 0 998 0.6 80
2017-09-18 06:00:00 12.1 7 Sudoeste 12 Sudoeste 0 997.8 0 78
2017-09-18 05:00:00 12.5 5 Sudoeste 16 Oeste 0 997.7 0 74
2017-09-18 04:00:00 13.2 4 Sudoeste 16 Oeste 0 997.4 -0.3 70
2017-09-18 03:00:00 14.2 6 Sudoeste 18 Oeste 0 997.8 0.4 66
2017-09-18 02:00:00 15.1 14 Oeste 28 Noroeste 0 997.7 0.6 62
2017-09-18 01:00:00 16.4 10 Oeste 24 Oeste 0 997.7 1.2 56
2017-09-18 00:00:00 17.4 15 Oeste 26 Noroeste 0 997.4 1.7 51
2017-09-17 23:00:00 19.1 12 Oeste 24 Oeste 0 997.1 1.9 39
2017-09-17 22:00:00 20.4 10 Oeste 21 Oeste 0 996.5 1.3 33
2017-09-17 21:00:00 21.9 12 Oeste 20 Oeste 0 995.7 0.2 29
2017-09-17 20:00:00 25.2 9 Oeste 22 Oeste 0 995.2 -0.4 22
2017-09-17 19:00:00 26.9 11 Oeste 22 Noroeste 0 995.2 -0.8 19
2017-09-17 18:00:00 27.3 12 Oeste 24 Oeste 0 995.5 -1.3 21
2017-09-17 17:00:00 26.1 13 Oeste 22 Noroeste 0 995.6 -1.6 20
2017-09-17 16:00:00 26.6 12 Oeste 23 Oeste 0 996 -1.5 19
2017-09-17 15:00:00 25.1 9 Oeste 17 Oeste 0 996.8 -1.1 23
2017-09-17 14:00:00 24 9 Oeste 17 Oeste 0 997.2 -0.7 27
2017-09-17 13:00:00 21.6 6 Oeste 15 Noroeste 0 997.5 0.2 34
2017-09-17 12:00:00 19.5 5 Oeste 12 Noroeste 0 997.9 1 42
2017-09-17 11:00:00 16.5 8 Oeste 14 Noroeste 0 997.9 1.7 55
2017-09-17 10:00:00 14 8 Noroeste 13 Noroeste 0 997.3 1.4 62
2017-09-17 09:00:00 11.2 2 Sudoeste 8 Sudoeste 0 996.9 1.3 72
2017-09-17 08:00:00 10.3 4 Sudoeste 12 Oeste 0 996.2 0.5 73
2017-09-17 07:00:00 11.3 7 Oeste 15 Oeste 0 995.9 0.4 72
2017-09-17 06:00:00 12.1 6 Oeste 14 Oeste 0 995.6 0.1 68
2017-09-17 05:00:00 12.8 7 Oeste 15 Oeste 0 995.7 0.3 64
2017-09-17 04:00:00 13.4 6 Oeste 15 Oeste 0 995.5 0.2 60
2017-09-17 03:00:00 14.2 9 Oeste 15 Oeste 0 995.5 0.6 56
2017-09-17 02:00:00 15.1 9 Oeste 17 Oeste 0 995.4 1 53
2017-09-17 01:00:00 16.1 7 Oeste 17 Oeste 0 995.3 1.8 50
2017-09-17 00:00:00 17.6 10 Oeste 21 Oeste 0 994.9 2 44
2017-09-16 23:00:00 18.7 13 Oeste 19 Oeste 0 994.4 1.8 38
2017-09-16 22:00:00 20.7 5 Sudoeste 12 Sur 0 993.5 1.2 30
2017-09-16 21:00:00 22.2 4 Sudoeste 9 Sudoeste 0 992.9 0.5 31
2017-09-16 20:00:00 24.9 5 Oeste 19 Oeste 0 992.6 0.2 25
2017-09-16 19:00:00 26.7 9 Oeste 23 Noroeste 0 992.3 -0.3 21
2017-09-16 18:00:00 26.9 13 Noroeste 23 Noroeste 0 992.4 -0.8 19
2017-09-16 17:00:00 27.8 7 Sudoeste 27 Noroeste 0 992.4 -1.1 20
2017-09-16 16:00:00 26.5 12 Noroeste 28 Noroeste 0 992.6 -1.2 22
2017-09-16 15:00:00 25.7 11 Noroeste 21 Noroeste 0 993.2 -0.9 25
2017-09-16 14:00:00 25 6 Noroeste 15 Noroeste 0 993.5 -0.4 28
2017-09-16 13:00:00 23.4 5 Sudoeste 12 Sudoeste 0 993.8 0.3 32
2017-09-16 12:00:00 20.7 5 Noroeste 15 Noroeste 0 994.1 1.1 37
2017-09-16 11:00:00 17.9 6 Noroeste 16 Oeste 0 993.9 1.8 45
2017-09-16 10:00:00 15.8 9 Oeste 17 Oeste 0 993.5 1.9 53
2017-09-16 09:00:00 11.7 7 Sudoeste 14 Sudoeste 0 993 1.3 72
2017-09-16 08:00:00 10.6 6 Sudoeste 12 Sudoeste 0 992.1 0.6 75
2017-09-16 07:00:00 11.9 7 Sudoeste 16 Oeste 0 991.6 -0.1 68
2017-09-16 06:00:00 12.5 8 Oeste 18 Oeste 0 991.7 -0.2 66
2017-09-16 05:00:00 12.9 7 Oeste 17 Oeste 0 991.5 -0.5 64
2017-09-16 04:00:00 13.3 9 Oeste 17 Oeste 0 991.7 -0.3 62
2017-09-16 03:00:00 13.4 9 Oeste 22 Oeste 0 991.9 -0.2 62
2017-09-16 02:00:00 14.3 14 Oeste 24 Noroeste 0 992 -0.1 59
2017-09-16 01:00:00 15.5 14 Oeste 26 Noroeste 0 992 0 54
2017-09-16 00:00:00 16.8 16 Oeste 30 Noroeste 0 992.1 0.9 49
2017-09-15 23:00:00 17.8 16 Oeste 35 Oeste 0 992.1 1.2 47
2017-09-15 22:00:00 19.7 22 Oeste 39 Noroeste 0 992 1.2 42
2017-09-15 21:00:00 21.3 15 Oeste 28 Noroeste 0 991.2 0.3 24
2017-09-15 20:00:00 24.1 19 Noroeste 35 Noroeste 0 990.9 -0.3 19
2017-09-15 19:00:00 25.9 22 Noroeste 43 Noroeste 0 990.8 -0.8 18
2017-09-15 18:00:00 26.5 26 Noroeste 44 Noroeste 0 990.9 -1.1 18
2017-09-15 17:00:00 26.8 27 Noroeste 43 Noroeste 0 991.2 -1.4 18
2017-09-15 16:00:00 26.8 24 Noroeste 41 Noroeste 0 991.6 -1.6 21
2017-09-15 15:00:00 26.6 23 Noroeste 39 Noroeste 0 992 -1.8 22
2017-09-15 14:00:00 26.1 17 Noroeste 31 Noroeste 0 992.6 -1.2 26
2017-09-15 13:00:00 23.8 18 Oeste 32 Noroeste 0 993.2 -0.4 30
2017-09-15 12:00:00 21 16 Oeste 24 Noroeste 0 993.8 0.4 43
2017-09-15 11:00:00 18.2 10 Oeste 23 Noroeste 0 993.8 0.7 52
2017-09-15 10:00:00 15.1 12 Oeste 25 Oeste 0 993.6 0.6 66
2017-09-15 09:00:00 12.9 9 Oeste 19 Sudoeste 0 993.4 0.3 76
2017-09-15 08:00:00 12 8 Oeste 18 Oeste 0 993.1 -0.3 81
2017-09-15 07:00:00 12.5 9 Oeste 22 Oeste 0 993 -0.8 81
2017-09-15 06:00:00 13.4 12 Oeste 29 Noroeste 0 993.1 -1 77
2017-09-15 05:00:00 13.9 18 Oeste 31 Noroeste 0 993.4 -0.9 74
2017-09-15 04:00:00 14.9 12 Oeste 30 Oeste 0 993.8 -0.8 69
2017-09-15 03:00:00 16 12 Oeste 25 Oeste 0 994.1 -0.4 65
2017-09-15 02:00:00 16.8 12 Oeste 30 Oeste 0 994.3 -0.2 59
2017-09-15 01:00:00 18 18 Oeste 28 Oeste 0 994.6 0.6 50
2017-09-15 00:00:00 19.9 17 Oeste 32 Oeste 0 994.5 1.1 45
2017-09-14 23:00:00 22 17 Oeste 36 Oeste 0 994.5 1.1 40
2017-09-14 22:00:00 24.9 23 Oeste 37 Oeste 0 994 0.6 47
2017-09-14 21:00:00 27.8 14 Oeste 28 Oeste 0 993.4 -0.7 40
2017-09-14 20:00:00 30.4 12 Oeste 24 Noroeste 0 993.4 -1.7 26
2017-09-14 19:00:00 31.3 6 Sudoeste 21 Oeste 0 993.4 -2.6 28
2017-09-14 18:00:00 30.9 8 Oeste 20 Noroeste 0 994.1 -2.8 28
2017-09-14 17:00:00 32 7 Oeste 26 Noroeste 0 995.1 -2.5 24
2017-09-14 16:00:00 31 12 Oeste 26 Oeste 0 996 -2.5 22
2017-09-14 15:00:00 29.7 10 Oeste 22 Oeste 0 996.9 -2.1 32
2017-09-14 14:00:00 28.3 8 Oeste 16 Noroeste 0 997.6 -1.5 38
2017-09-14 13:00:00 25.2 9 Oeste 18 Sudoeste 0 998.5 -0.1 45
2017-09-14 12:00:00 22.1 7 Oeste 15 Noroeste 0 999 0.5 58
2017-09-14 11:00:00 20.2 7 Oeste 20 Oeste 0 999.1 1.3 67
2017-09-14 10:00:00 18.1 11 Oeste 19 Oeste 0 998.6 0.9 77
2017-09-14 09:00:00 16 6 Sudoeste 12 Sudoeste 0 998.5 1 85
2017-09-14 08:00:00 15.3 5 Sudoeste 10 Oeste 0 997.8 0.1 85
2017-09-14 07:00:00 15.9 4 Sudoeste 16 Oeste 0 997.7 -0.1 81
2017-09-14 06:00:00 16.9 9 Oeste 17 Oeste 0 997.5 -0.4 77
2017-09-14 05:00:00 18.4 9 Oeste 17 Oeste 0 997.7 -0.1 70
2017-09-14 04:00:00 19.7 2 Sudoeste 15 Noroeste 0 997.8 0.2 60
2017-09-14 03:00:00 20.8 8 Oeste 16 Oeste 0 997.9 0.5 58
2017-09-14 02:00:00 22.2 4 Sudoeste 13 Oeste 0 997.8 0.8 52
2017-09-14 01:00:00 23.1 9 Oeste 18 Oeste 0 997.6 1.2 50
2017-09-14 00:00:00 24.3 10 Oeste 19 Oeste 0 997.4 1.4 47
2017-09-13 23:00:00 26.7 13 Oeste 22 Oeste 0 997 1.3 37
2017-09-13 22:00:00 28.3 5 Oeste 9 Oeste 0 996.4 0.6 31
2017-09-13 21:00:00 30.1 5 Sudoeste 10 Sudoeste 0 996 -0.2 28
2017-09-13 20:00:00 33.1 4 Oeste 15 Oeste 0 995.7 -1.2 25
2017-09-13 19:00:00 34.7 8 Oeste 20 Sudoeste 0 995.8 -1.6 22
2017-09-13 18:00:00 34.6 7 Oeste 17 Noroeste 0 996.2 -1.9 22
2017-09-13 17:00:00 34.4 8 Oeste 24 Noroeste 0 996.9 -1.7 21
2017-09-13 16:00:00 34.1 10 Oeste 23 Noroeste 0 997.4 -1.7 21
2017-09-13 15:00:00 33.2 8 Oeste 16 Norte 0 998.1 -1.2 26
2017-09-13 14:00:00 31.6 4 Sudoeste 10 Noroeste 0 998.6 -0.5 30
2017-09-13 13:00:00 29.2 5 Este 11 Este 0 999.1 0.2 35
2017-09-13 12:00:00 26.5 5 Nordeste 10 Este 0 999.3 0.7 41
2017-09-13 11:00:00 23.7 5 Nordeste 8 Nordeste 0 999.1 1.2 48
2017-09-13 10:00:00 20.8 3 Noroeste 8 Oeste 0 998.9 1.4 55
2017-09-13 09:00:00 18.4 4 Oeste 9 Noroeste 0 998.6 1.5 69
2017-09-13 08:00:00 18.1 5 Oeste 8 Oeste 0 997.9 0.4 69
2017-09-13 07:00:00 18 5 Oeste 13 Oeste 0 997.5 -0.2 72
2017-09-13 06:00:00 17.8 9 Oeste 14 Oeste 0 997.1 -1 75
2017-09-13 05:00:00 19.4 8 Oeste 13 Noroeste 0 997.5 -0.4 66
2017-09-13 04:00:00 20.3 6 Oeste 12 Oeste 0 997.7 0.1 61
2017-09-13 03:00:00 21.3 6 Oeste 12 Oeste 0 998.1 0.7 56
2017-09-13 02:00:00 21.9 6 Oeste 14 Oeste 0 997.9 0.6 56
2017-09-13 01:00:00 22.6 6 Oeste 12 Oeste 0 997.6 1 53
2017-09-13 00:00:00 23.7 6 Oeste 11 Sudoeste 0 997.4 1.5 45
2017-09-12 23:00:00 24.6 4 Oeste 9 Noroeste 0 997.3 1.8 40
2017-09-12 22:00:00 26.2 0 Calma 10 Norte 0 996.6 1.3 37
2017-09-12 21:00:00 28 6 Norte 11 Norte 0 995.9 0.5 30
2017-09-12 20:00:00 30.8 8 Norte 20 Noroeste 0 995.5 0 25
2017-09-12 19:00:00 32 9 Norte 22 Norte 0 995.3 -0.5 21
2017-09-12 18:00:00 32.9 12 Noroeste 27 Noroeste 0 995.4 -1 19
2017-09-12 17:00:00 32.5 13 Noroeste 32 Noroeste 0 995.5 -1.3 20
2017-09-12 16:00:00 32.1 17 Noroeste 46 Noroeste 0 995.8 -1.2 22
2017-09-12 15:00:00 31 13 Noroeste 27 Norte 0 996.4 -0.6 26
2017-09-12 14:00:00 29.7 17 Norte 32 Norte 0 996.8 0.1 27
2017-09-12 13:00:00 28.6 18 Noroeste 26 Noroeste 0 997 0.6 28
2017-09-12 12:00:00 26.5 10 Norte 22 Norte 0 997 1 36
2017-09-12 11:00:00 22.9 8 Noroeste 17 Noroeste 0 996.7 1.4 46
2017-09-12 10:00:00 20.6 8 Oeste 13 Noroeste 0 996.4 1.6 50
2017-09-12 09:00:00 17.5 7 Oeste 11 Oeste 0 996 1.6 61
2017-09-12 08:00:00 16.3 4 Sudoeste 13 Oeste 0 995.3 1 64
2017-09-12 07:00:00 16.9 7 Oeste 13 Oeste 0 994.8 0.3 61
2017-09-12 06:00:00 17.3 7 Oeste 15 Noroeste 0 994.4 0 60
2017-09-12 05:00:00 18.3 8 Oeste 15 Oeste 0 994.3 0 56
2017-09-12 04:00:00 18.7 8 Oeste 18 Oeste 0 994.5 0.3 54
2017-09-12 03:00:00 19.3 8 Oeste 19 Oeste 0 994.4 0.5 53
2017-09-12 02:00:00 20.8 12 Oeste 21 Oeste 0 994.3 0.8 50
2017-09-12 01:00:00 22.2 8 Oeste 20 Oeste 0 994.2 1.5 48
2017-09-12 00:00:00 23.8 14 Oeste 22 Oeste 0 993.9 2.1 42
2017-09-11 23:00:00 25.3 10 Oeste 24 Noroeste 0 993.5 2 34
2017-09-11 22:00:00 27.5 13 Oeste 23 Noroeste 0 992.7 1.2 29
2017-09-11 21:00:00 29.7 19 Noroeste 26 Noroeste 0 991.8 0.1 29
2017-09-11 20:00:00 32.6 16 Oeste 24 Noroeste 0 991.5 -0.6 27
2017-09-11 19:00:00 34.4 7 Noroeste 28 Noroeste 0 991.5 -1.2 21
2017-09-11 18:00:00 34.3 11 Noroeste 26 Oeste 0 991.7 -1.8 23
2017-09-11 17:00:00 33.8 11 Oeste 23 Oeste 0 992.1 -2.1 25
2017-09-11 16:00:00 33.4 10 Oeste 22 Noroeste 0 992.7 -2 28
2017-09-11 15:00:00 31.7 9 Noroeste 25 Noroeste 0 993.5 -1.3 30
2017-09-11 14:00:00 29.9 9 Oeste 18 Noroeste 0 994.2 -0.7 35
2017-09-11 13:00:00 28.2 6 Noroeste 12 Noroeste 0 994.7 0.1 39
2017-09-11 12:00:00 25.9 4 Oeste 10 Oeste 0 994.8 0.5 43
2017-09-11 11:00:00 23.1 5 Sudoeste 11 Sudoeste 0 994.9 1 48
2017-09-11 10:00:00 20.2 5 Oeste 9 Oeste 0 994.6 1 55
2017-09-11 09:00:00 17.4 4 Sudoeste 9 Sudoeste 0 994.3 0.6 64
2017-09-11 08:00:00 16.1 4 Oeste 9 Oeste 0 993.9 0.1 67
2017-09-11 07:00:00 16.1 5 Oeste 10 Sudoeste 0 993.6 -0.2 66
2017-09-11 06:00:00 17.1 5 Sudoeste 11 Oeste 0 993.7 -0.6 62
2017-09-11 05:00:00 17.7 5 Oeste 11 Oeste 0 993.8 -0.6 59
2017-09-11 04:00:00 18.4 5 Oeste 11 Oeste 0 993.8 -0.5 56
2017-09-11 03:00:00 18.9 7 Sudoeste 13 Sudoeste 0 994.3 0 54
2017-09-11 02:00:00 19.4 7 Oeste 13 Oeste 0 994.4 0.2 51
2017-09-11 01:00:00 20.3 8 Oeste 17 Oeste 0 994.3 1 48
2017-09-11 00:00:00 21.4 8 Oeste 18 Oeste 0 994.3 1.3 42
2017-09-10 23:00:00 22.2 8 Oeste 16 Oeste 0 994.2 1.4 35
2017-09-10 22:00:00 23.3 2 Sudoeste 7 Noroeste 0 993.3 0.3 28
2017-09-10 21:00:00 25.3 5 Noroeste 13 Noroeste 0 993 0 23
2017-09-10 20:00:00 27.9 8 Noroeste 14 Noroeste 0 992.8 -0.4 19
2017-09-10 19:00:00 28.8 6 Norte 21 Norte 0 993 -0.7 17
2017-09-10 18:00:00 28.6 10 Noroeste 22 Noroeste 0 993 -1.5 18
2017-09-10 17:00:00 28.2 12 Noroeste 27 Noroeste 0 993.2 -1.7 19
2017-09-10 16:00:00 27.5 12 Noroeste 28 Norte 0 993.7 -1.5 20
2017-09-10 15:00:00 26.3 15 Norte 28 Norte 0 994.5 -0.9 22
2017-09-10 14:00:00 24.2 11 Norte 27 Noroeste 0 994.9 -0.3 30
2017-09-10 13:00:00 22.3 11 Norte 24 Norte 0 995.2 0.4 35
2017-09-10 12:00:00 21 11 Norte 26 Noroeste 0 995.4 0.9 38
2017-09-10 11:00:00 18.9 10 Noroeste 19 Noroeste 0 995.2 1.4 46
2017-09-10 10:00:00 16.9 8 Noroeste 15 Noroeste 0 994.8 1.4 55
2017-09-10 09:00:00 14.5 5 Oeste 15 Noroeste 0 994.5 1.5 66
2017-09-10 08:00:00 13.6 9 Oeste 17 Noroeste 0 993.8 0.6 69
2017-09-10 07:00:00 13.6 10 Oeste 17 Noroeste 0 993.4 0.3 71
2017-09-10 06:00:00 13.7 10 Oeste 19 Oeste 0 993 0 72
2017-09-10 05:00:00 13.9 6 Sudoeste 22 Oeste 0 993.2 0.4 71
2017-09-10 04:00:00 13.9 8 Oeste 19 Noroeste 0 993.1 0.4 70
2017-09-10 03:00:00 14.4 9 Oeste 27 Oeste 0 993 0.8 68
2017-09-10 02:00:00 15.5 19 Noroeste 24 Oeste 0 992.8 1.2 64
2017-09-10 01:00:00 16.5 13 Oeste 25 Noroeste 0 992.7 1.6 58
2017-09-10 00:00:00 17.6 15 Oeste 33 Noroeste 0 992.2 1.8 53
2017-09-09 23:00:00 18.9 23 Oeste 38 Noroeste 0 991.6 1.8 48
2017-09-09 22:00:00 20.1 25 Oeste 41 Noroeste 0 991.1 1.5 44
2017-09-09 21:00:00 21 17 Oeste 45 Noroeste 0 990.4 1.1 42
2017-09-09 20:00:00 22.9 32 Oeste 47 Oeste 0 989.8 0.4 38
2017-09-09 19:00:00 25.2 28 Oeste 46 Oeste 0 989.6 0 34
2017-09-09 18:00:00 27.2 28 Oeste 52 Noroeste 0 989.3 -0.9 31
2017-09-09 17:00:00 27.9 32 Oeste 54 Oeste 0 989.4 -1.5 30
2017-09-09 16:00:00 28.1 26 Oeste 47 Noroeste 0 989.6 -1.7 30
2017-09-09 15:00:00 27.6 19 Oeste 45 Noroeste 0 990.2 -1.4 34
2017-09-09 14:00:00 26.6 19 Oeste 35 Oeste 0 990.9 -0.9 38
2017-09-09 13:00:00 24.3 17 Oeste 35 Noroeste 0 991.3 -0.4 49
2017-09-09 12:00:00 23.2 21 Noroeste 36 Noroeste 0 991.6 0.1 53
2017-09-09 11:00:00 21 16 Oeste 32 Noroeste 0 991.8 0.6 62
2017-09-09 10:00:00 18.3 15 Oeste 26 Oeste 0 991.7 0.8 74
2017-09-09 09:00:00 17.1 10 Oeste 19 Oeste 0 991.5 0.9 76
2017-09-09 08:00:00 16.5 11 Oeste 21 Oeste 0 991.2 0.4 78
2017-09-09 07:00:00 16.6 11 Oeste 19 Oeste 0 990.9 -0.2 78
2017-09-09 06:00:00 16.4 9 Oeste 23 Oeste 0 990.6 -1.1 79
2017-09-09 05:00:00 16.4 12 Oeste 27 Oeste 0 990.8 -0.8 77
2017-09-09 04:00:00 16.5 13 Oeste 32 Oeste 0 991.1 -1 74
2017-09-09 03:00:00 16.8 13 Oeste 28 Oeste 0 991.7 0 71
2017-09-09 02:00:00 17.5 10 Oeste 25 Oeste 0 991.6 0.2 62
2017-09-09 01:00:00 18.7 10 Oeste 32 Oeste 0 992.1 1 57
2017-09-09 00:00:00 20.4 13 Oeste 33 Oeste 0 991.7 0.9 45
2017-09-08 23:00:00 23.2 17 Oeste 33 Sudoeste 0 991.4 1.2 31
2017-09-08 22:00:00 25.1 13 Oeste 25 Oeste 0 991.1 1.3 29
2017-09-08 21:00:00 27.4 14 Oeste 32 Noroeste 0 990.8 0.8 23
2017-09-08 20:00:00 30.9 20 Oeste 34 Noroeste 0 990.2 -0.1 15
2017-09-08 19:00:00 33.8 20 Oeste 36 Noroeste 0 989.8 -1.1 12
2017-09-08 18:00:00 35.3 18 Oeste 32 Oeste 0 990 -1.8 8
2017-09-08 17:00:00 36 15 Oeste 33 Noroeste 0 990.3 -2.2 11
2017-09-08 16:00:00 35.7 15 Oeste 31 Noroeste 0 990.9 -2 11
2017-09-08 15:00:00 34.5 14 Oeste 25 Noroeste 0 991.8 -1.4 14
2017-09-08 14:00:00 32.8 11 Oeste 22 Noroeste 0 992.5 -1 14
2017-09-08 13:00:00 30.5 7 Noroeste 14 Noroeste 0 992.9 -0.4 18
2017-09-08 12:00:00 27.5 5 Noroeste 11 Oeste 0 993.2 0.3 22
2017-09-08 11:00:00 23.6 3 Oeste 8 Noroeste 0 993.5 1 30
2017-09-08 10:00:00 19.2 4 Noroeste 6 Noroeste 0 993.3 0.9 39
2017-09-08 09:00:00 16.4 0 Calma 8 Oeste 0 992.9 0.3 45
2017-09-08 08:00:00 16 4 Oeste 8 Oeste 0 992.5 -0.2 43
2017-09-08 07:00:00 17.3 5 Oeste 9 Oeste 0 992.4 -0.5 37
2017-09-08 06:00:00 18.1 5 Oeste 8 Sudoeste 0 992.6 -0.7 31
2017-09-08 05:00:00 19.8 5 Sudoeste 8 Oeste 0 992.7 -0.7 27
2017-09-08 04:00:00 21.3 7 Sudoeste 11 Sudoeste 0 992.9 -0.4 24
2017-09-08 03:00:00 21.3 6 Sudoeste 10 Sudoeste 0 993.3 -0.1 25
2017-09-08 02:00:00 21.8 5 Sudoeste 8 Oeste 0 993.4 0.3 26
2017-09-08 01:00:00 23.8 7 Oeste 12 Oeste 0 993.3 0.6 20
2017-09-08 00:00:00 24.8 7 Oeste 19 Noroeste 0 993.4 1.3 21
2017-09-07 23:00:00 26.8 4 Oeste 9 Noroeste 0 993.1 1.2 20
2017-09-07 22:00:00 28.5 5 Oeste 13 Noroeste 0 992.7 0.9 18
2017-09-07 21:00:00 30.2 10 Noroeste 19 Noroeste 0 992.1 0.3 14
2017-09-07 20:00:00 33.8 14 Noroeste 22 Norte 0 991.9 -0.5 15
2017-09-07 19:00:00 35.5 18 Noroeste 27 Norte 0 991.8 -1.2 17
2017-09-07 18:00:00 36.4 16 Noroeste 24 Noroeste 0 991.8 -1.8 17
2017-09-07 17:00:00 36.2 4 Sudoeste 15 Sur 0 992.4 -1.7 23
2017-09-07 16:00:00 35.8 4 Sudoeste 15 Este 0 993 -1.5 24
2017-09-07 15:00:00 34.4 6 Este 17 Nordeste 0 993.6 -1.2 27
2017-09-07 14:00:00 32.9 7 Norte 18 Este 0 994.1 -0.6 28
2017-09-07 13:00:00 31.2 8 Norte 15 Nordeste 0 994.5 -0.2 31
2017-09-07 12:00:00 29 10 Norte 18 Nordeste 0 994.8 0.3 34
2017-09-07 11:00:00 27 7 Noroeste 14 Noroeste 0 994.7 0.5 36
2017-09-07 10:00:00 24.7 12 Noroeste 17 Noroeste 0 994.7 0.9 40
2017-09-07 09:00:00 22.3 8 Noroeste 11 Noroeste 0 994.5 0.6 47
2017-09-07 08:00:00 21.9 6 Oeste 10 Oeste 0 994.2 0.1 49
2017-09-07 07:00:00 22.6 5 Oeste 9 Oeste 0 993.8 -0.3 49
2017-09-07 06:00:00 23.3 6 Oeste 9 Oeste 0 993.9 -0.4 49
2017-09-07 05:00:00 23.9 4 Oeste 8 Oeste 0 994.1 -0.5 48
2017-09-07 04:00:00 24.8 6 Oeste 14 Oeste 0 994.1 -0.5 45
2017-09-07 03:00:00 24.7 12 Oeste 16 Oeste 0 994.3 -0.2 48
2017-09-07 02:00:00 25.3 8 Oeste 14 Noroeste 0 994.6 0.1 51
2017-09-07 01:00:00 26 10 Oeste 17 Oeste 0 994.6 0.6 50
2017-09-07 00:00:00 27.9 9 Oeste 17 Oeste 0 994.5 1 43
2017-09-06 23:00:00 29.5 10 Oeste 19 Oeste 0 994.5 1 36
2017-09-06 22:00:00 30.4 6 Oeste 12 Oeste 0 994 0.2 32
2017-09-06 21:00:00 32.7 3 Sudoeste 8 Sudoeste 0 993.5 -0.7 27
2017-09-06 20:00:00 35.8 5 Sudoeste 13 Sudoeste 0 993.5 -1.3 23
2017-09-06 19:00:00 37 5 Sudoeste 11 Sur 0 993.8 -1.9 19
2017-09-06 18:00:00 37.2 6 Sur 12 Sur 0 994.2 -2.1 18
2017-09-06 17:00:00 37 4 Sudoeste 16 Oeste 0 994.8 -2.3 20
2017-09-06 16:00:00 36.2 6 Oeste 12 Oeste 0 995.7 -2.1 22
2017-09-06 15:00:00 35.5 6 Sur 12 Sur 0 996.3 -1.8 24
2017-09-06 14:00:00 34 5 Sudoeste 12 Sur 0 997.1 -1.2 29
2017-09-06 13:00:00 31.6 5 Sudoeste 9 Oeste 0 997.8 -0.6 34
2017-09-06 12:00:00 28.4 4 Noroeste 10 Norte 0 998.1 -0.1 42
2017-09-06 11:00:00 24.7 4 Oeste 12 Sudoeste 0 998.3 0.2 57
2017-09-06 10:00:00 21.6 7 Oeste 17 Noroeste 0 998.4 0.7 66
2017-09-06 09:00:00 19.2 8 Oeste 17 Oeste 0 998.2 0.5 76
2017-09-06 08:00:00 18 9 Oeste 16 Oeste 0 998.1 0.2 81
2017-09-06 07:00:00 18.8 9 Oeste 16 Oeste 0 997.7 -0.6 78
2017-09-06 06:00:00 19.5 9 Oeste 17 Oeste 0 997.7 -0.7 76
2017-09-06 05:00:00 20.5 10 Oeste 14 Oeste 0 997.9 -0.6 71
2017-09-06 04:00:00 21.6 8 Oeste 15 Oeste 0 998.3 -0.2 67
2017-09-06 03:00:00 23.7 8 Oeste 16 Sudoeste 0 998.4 0.1 59
2017-09-06 02:00:00 24.7 8 Oeste 15 Oeste 0 998.5 0.4 55
2017-09-06 01:00:00 25 9 Oeste 14 Oeste 0 998.5 0.8 55
2017-09-06 00:00:00 26.8 8 Oeste 15 Oeste 0 998.3 1.1 48
2017-09-05 23:00:00 27.6 11 Oeste 19 Oeste 0 998.1 1.2 44
2017-09-05 22:00:00 29.4 8 Oeste 14 Oeste 0 997.7 0.9 40
2017-09-05 21:00:00 32 3 Oeste 9 Oeste 0 997.2 0.3 35
2017-09-05 20:00:00 34.1 5 Oeste 14 Oeste 0 996.9 -0.5 29
2017-09-05 19:00:00 34.5 9 Noroeste 18 Noroeste 0 996.8 -0.9 27
2017-09-05 18:00:00 34.9 7 Oeste 18 Oeste 0 996.9 -1.4 28
2017-09-05 17:00:00 34.2 10 Oeste 24 Noroeste 0 997.4 -1.4 29
2017-09-05 16:00:00 33.5 10 Oeste 21 Noroeste 0 997.7 -1.9 32
2017-09-05 15:00:00 31.9 5 Oeste 15 Oeste 0 998.3 -1.1 39
2017-09-05 14:00:00 29.7 5 Noroeste 15 Noroeste 0 998.8 -0.2 44
2017-09-05 13:00:00 27.3 7 Oeste 14 Oeste 0 999.6 0.9 50
2017-09-05 12:00:00 24.7 5 Sudoeste 10 Noroeste 0 999.4 0.9 60
2017-09-05 11:00:00 22.1 3 Nordeste 8 Oeste 0 999 0.9 69
2017-09-05 10:00:00 19.9 3 Noroeste 9 Oeste 0 998.7 0.9 78
2017-09-05 09:00:00 17.8 3 Sudoeste 8 Sudoeste 0 998.5 1 86
2017-09-05 08:00:00 16.7 4 Sudoeste 12 Sudoeste 0 998.1 0.9 90
2017-09-05 07:00:00 16.9 5 Oeste 14 Noroeste 0 997.8 0.3 90
2017-09-05 06:00:00 17.2 7 Oeste 19 Noroeste 0 997.5 0.4 88
2017-09-05 05:00:00 18.4 7 Oeste 17 Oeste 0 997.2 0.1 83
2017-09-05 04:00:00 18.6 11 Oeste 21 Oeste 0 997.5 0.6 82
2017-09-05 03:00:00 20.3 9 Oeste 21 Oeste 0 997.1 0.6 74
2017-09-05 02:00:00 21.4 6 Oeste 21 Oeste 0 997.1 1.3 69
2017-09-05 01:00:00 22.4 10 Oeste 26 Oeste 0 996.9 1.8 65
2017-09-05 00:00:00 24.2 11 Oeste 23 Oeste 0 996.5 2.1 56
2017-09-04 23:00:00 25.5 10 Oeste 22 Oeste 0 995.8 1.8 50
2017-09-04 22:00:00 27.1 9 Oeste 17 Noroeste 0 995.1 1.1 45
2017-09-04 21:00:00 28.3 11 Oeste 22 Oeste 0 994.4 0.5 42
2017-09-04 20:00:00 30.8 13 Oeste 27 Oeste 0 994 -0.2 37
2017-09-04 19:00:00 32 12 Oeste 24 Oeste 0 994 -0.4 35
2017-09-04 18:00:00 32.2 12 Oeste 27 Oeste 0 993.9 -1.2 36
2017-09-04 17:00:00 31.7 13 Oeste 30 Oeste 0 994.2 -1.3 38
2017-09-04 16:00:00 31 11 Oeste 27 Sudoeste 0 994.4 -1.4 40
2017-09-04 15:00:00 30.1 14 Oeste 30 Oeste 0 995.1 -0.9 45
2017-09-04 14:00:00 28.8 10 Oeste 27 Noroeste 0 995.5 -0.4 48
2017-09-04 13:00:00 27 11 Noroeste 24 Noroeste 0 995.8 0.2 51
2017-09-04 12:00:00 25.4 10 Oeste 23 Noroeste 0 996 0.6 56
2017-09-04 11:00:00 23.2 10 Oeste 21 Noroeste 0 995.9 1 66
2017-09-04 10:00:00 20.3 10 Oeste 20 Oeste 0 995.6 1.3 77
2017-09-04 09:00:00 18.1 10 Oeste 22 Oeste 0 995.4 1.1 84
2017-09-04 08:00:00 16.5 12 Oeste 20 Oeste 0 994.9 0.7 83
2017-09-04 07:00:00 16.9 8 Oeste 19 Oeste 0 994.3 0.1 77
2017-09-04 06:00:00 17 8 Oeste 18 Oeste 0 994.3 0.1 75
2017-09-04 05:00:00 17.4 12 Oeste 25 Oeste 0 994.2 0.2 71
2017-09-04 04:00:00 18.6 10 Oeste 23 Oeste 0 994.2 0.3 66
2017-09-04 03:00:00 19.6 13 Oeste 22 Oeste 0 994.2 0.4 66
2017-09-04 02:00:00 20.9 13 Oeste 23 Oeste 0 994 0.8 62
2017-09-04 01:00:00 22.3 10 Oeste 23 Oeste 0 993.9 1.1 53
2017-09-04 00:00:00 23 9 Oeste 28 Oeste 0 993.8 1.5 35
2017-09-03 23:00:00 24.5 12 Oeste 23 Oeste 0 993.2 1.1 24
2017-09-03 22:00:00 25.8 12 Oeste 23 Noroeste 0 992.8 0.8 22
2017-09-03 21:00:00 28.4 16 Oeste 28 Oeste 0 992.3 0.3 14
2017-09-03 20:00:00 31.9 19 Oeste 33 Noroeste 0 992.1 -0.2 15
2017-09-03 19:00:00 33.6 25 Noroeste 37 Noroeste 0 992 -0.9 16
2017-09-03 18:00:00 34.9 19 Oeste 37 Sudoeste 0 992 -1.6 17
2017-09-03 17:00:00 35.3 15 Oeste 29 Oeste 0 992.3 -1.7 19
2017-09-03 16:00:00 35.4 8 Sudoeste 24 Oeste 0 992.9 -1.8 18
2017-09-03 15:00:00 34 9 Oeste 17 Sudoeste 0 993.6 -1.4 20
2017-09-03 14:00:00 33 6 Sudoeste 16 Oeste 0 994 -1.3 23
2017-09-03 13:00:00 31.3 5 Sudoeste 11 Oeste 0 994.7 -0.5 27
2017-09-03 12:00:00 28.4 6 Oeste 11 Noroeste 0 995 -0.2 31
2017-09-03 11:00:00 24.8 8 Oeste 14 Oeste 0 995.3 0.5 36
2017-09-03 10:00:00 21.4 4 Oeste 8 Oeste 0 995.2 0.4 46
2017-09-03 09:00:00 18.6 0 Calma 5 Sur 0 995.2 0.1 57
2017-09-03 08:00:00 18.1 3 Sur 6 Sudoeste 0 994.8 -0.5 54
2017-09-03 07:00:00 19.7 5 Oeste 10 Noroeste 0 994.8 -0.7 48
2017-09-03 06:00:00 20.4 5 Oeste 9 Oeste 0 995.1 -0.7 45
2017-09-03 05:00:00 20.7 4 Oeste 10 Oeste 0 995.3 -0.7 49
2017-09-03 04:00:00 21.2 6 Oeste 12 Oeste 0 995.5 -0.4 47
2017-09-03 03:00:00 22.3 5 Oeste 11 Sudoeste 0 995.8 0 47
2017-09-03 02:00:00 22.8 6 Oeste 9 Oeste 0 996 0.2 49
2017-09-03 01:00:00 24 3 Este 6 Este 0 995.9 0.5 42
2017-09-03 00:00:00 25.3 6 Este 8 Este 0 995.8 1 37
2017-09-02 23:00:00 26.7 5 Nordeste 7 Nordeste 0 995.8 1.2 38
2017-09-02 22:00:00 28.2 4 Noroeste 11 Oeste 0 995.4 0.5 39
2017-09-02 21:00:00 31.1 6 Oeste 12 Oeste 0 994.8 -0.4 32
2017-09-02 20:00:00 33.3 5 Oeste 15 Noroeste 0 994.6 -1 28
2017-09-02 19:00:00 33.7 7 Noroeste 20 Noroeste 0 994.9 -1.3 27
2017-09-02 18:00:00 33.8 6 Noroeste 21 Norte 0 995.2 -1.8 28
2017-09-02 17:00:00 33.9 8 Nordeste 24 Norte 0 995.6 -1.9 29
2017-09-02 16:00:00 33 13 Nordeste 27 Nordeste 0 996.2 -1.8 32
2017-09-02 15:00:00 32.2 17 Nordeste 27 Este 0 997 -1.3 34
2017-09-02 14:00:00 31.4 15 Este 26 Este 0 997.5 -0.8 37
2017-09-02 13:00:00 30.2 19 Este 31 Este 0 998 -0.2 38
2017-09-02 12:00:00 28.6 20 Este 29 Nordeste 0 998.3 0.7 38
2017-09-02 11:00:00 26.1 14 Este 20 Este 0 998.3 1.3 37
2017-09-02 10:00:00 22.6 10 Nordeste 14 Nordeste 0 998.2 1.7 45
2017-09-02 09:00:00 18.3 3 Nordeste 9 Nordeste 0 997.6 1.6 57
2017-09-02 08:00:00 16.8 3 Este 6 Noroeste 0 997 0.7 60
2017-09-02 07:00:00 18.2 6 Noroeste 8 Noroeste 0 996.5 0.3 53
2017-09-02 06:00:00 19.3 4 Noroeste 8 Noroeste 0 996 -0.1 47
2017-09-02 05:00:00 19.9 7 Noroeste 11 Oeste 0 996.3 0.5 46
2017-09-02 04:00:00 20.9 5 Oeste 9 Oeste 0 996.2 0.7 43
2017-09-02 03:00:00 21.7 3 Noroeste 12 Norte 0 996.1 1.2 39
2017-09-02 02:00:00 23 6 Noroeste 10 Oeste 0 995.8 1.3 34
2017-09-02 01:00:00 23.6 6 Oeste 17 Norte 0 995.5 1.5 37
2017-09-02 00:00:00 24.3 13 Norte 19 Norte 0 994.9 1.6 33
2017-09-01 23:00:00 24.9 6 Norte 10 Norte 0 994.5 1.6 36
2017-09-01 22:00:00 27.1 6 Nordeste 10 Nordeste 0 994 1.2 32
2017-09-01 21:00:00 29.1 6 Nordeste 13 Norte 0 993.3 0.6 29
2017-09-01 20:00:00 32.6 11 Norte 21 Norte 0 992.9 -0.2 21
2017-09-01 19:00:00 33.8 9 Noroeste 24 Noroeste 0 992.8 -0.6 19
2017-09-01 18:00:00 34.3 9 Noroeste 25 Noroeste 0 992.7 -1.5 20
2017-09-01 17:00:00 34 12 Noroeste 24 Noroeste 0 993.1 -1.5 21
2017-09-01 16:00:00 33.9 8 Noroeste 26 Noroeste 0 993.4 -2 23
2017-09-01 15:00:00 33.2 7 Norte 22 Noroeste 0 994.2 -1.5 24
2017-09-01 14:00:00 32.6 6 Norte 17 Nordeste 0 994.6 -1 28
2017-09-01 13:00:00 30.7 6 Norte 15 Norte 0 995.4 0.2 34
2017-09-01 12:00:00 28.1 8 Norte 14 Norte 0 995.7 0.8 40
2017-09-01 11:00:00 25.1 7 Norte 11 Norte 0 995.6 1.3 49
2017-09-01 10:00:00 21.8 5 Norte 9 Norte 0 995.2 1.2 62
2017-09-01 09:00:00 19.9 6 Noroeste 8 Oeste 0 994.9 0.9 69
2017-09-01 08:00:00 18.9 5 Sudoeste 8 Oeste 0 994.3 0.3 73
2017-09-01 07:00:00 19.1 4 Oeste 10 Oeste 0 994 -0.1 71
2017-09-01 06:00:00 18.8 7 Oeste 13 Oeste 0 994 -0.2 74
2017-09-01 05:00:00 19.4 9 Oeste 13 Oeste 0 994 -0.2 73
2017-09-01 04:00:00 20.4 5 Sudoeste 10 Noroeste 0 994.1 0.1 69
2017-09-01 03:00:00 20.7 6 Oeste 15 Oeste 0 994.2 0.1 68
2017-09-01 02:00:00 21.5 8 Oeste 14 Oeste 0 994.2 0.7 67
2017-09-01 01:00:00 23.4 8 Oeste 14 Oeste 0 994 0.8 58
2017-09-01 00:00:00 23.5 7 Oeste 15 Noroeste 0 994.1 1.2 54
2017-08-31 23:00:00 25.5 5 Sudoeste 8 Sur 0 993.5 0.8 40
2017-08-31 22:00:00 26.8 5 Sur 8 Sur 0 993.2 0.5 38
2017-08-31 21:00:00 29.2 3 Sudoeste 6 Sudoeste 0 992.9 -0.1 35
2017-08-31 20:00:00 31.5 4 Sudoeste 10 Este 0 992.7 -0.7 28
2017-08-31 19:00:00 31.7 4 Nordeste 13 Este 0 992.7 -1.3 27
2017-08-31 18:00:00 31.7 6 Este 15 Sudeste 0 993 -1.5 27
2017-08-31 17:00:00 31.2 9 Nordeste 17 Este 0 993.4 -1.7 30
2017-08-31 16:00:00 30.8 7 Nordeste 18 Este 0 994 -1.6 31
2017-08-31 15:00:00 30.3 8 Nordeste 16 Nordeste 0 994.5 -1.4 35
2017-08-31 14:00:00 28.3 7 Nordeste 13 Nordeste 0 995.1 -0.7 43
2017-08-31 13:00:00 26.7 5 Nordeste 12 Noroeste 0 995.6 -0.1 53
2017-08-31 12:00:00 23.9 4 Norte 12 Norte 0 995.9 0.8 62
2017-08-31 11:00:00 21.4 3 Oeste 8 Noroeste 0 995.8 1.1 72
2017-08-31 10:00:00 18.8 4 Oeste 9 Oeste 0 995.7 1.6 83
2017-08-31 09:00:00 17.3 5 Oeste 9 Oeste 0 995.1 1.1 89
2017-08-31 08:00:00 16.2 7 Oeste 11 Oeste 0 994.7 0.7 93
2017-08-31 07:00:00 17 4 Oeste 12 Oeste 0 994.1 0.1 91
2017-08-31 06:00:00 17.5 5 Oeste 12 Oeste 0 994 -0.2 88
2017-08-31 05:00:00 18.1 6 Oeste 13 Oeste 0 994 -0.3 85
2017-08-31 04:00:00 18.7 7 Oeste 16 Oeste 0 994 0 83
2017-08-31 03:00:00 19.1 8 Oeste 14 Oeste 0 994.2 0.2 81
2017-08-31 02:00:00 19.4 10 Oeste 18 Oeste 0 994.3 0.4 80
2017-08-31 01:00:00 20.7 10 Oeste 17 Noroeste 0 994 0.9 73
2017-08-31 00:00:00 21.8 13 Oeste 22 Oeste 0 994 1.4 69
2017-08-30 23:00:00 23.4 13 Oeste 25 Oeste 0 993.9 1.4 59
2017-08-30 22:00:00 25.1 3 Sudoeste 8 Sur 0 993.1 0.5 53
2017-08-30 21:00:00 26.7 4 Sudoeste 8 Sur 0 992.6 -0.3 46
2017-08-30 20:00:00 28 4 Sur 12 Sur 0 992.5 -0.7 39
2017-08-30 19:00:00 29.1 4 Sudoeste 15 Noroeste 0 992.6 -1.3 35
2017-08-30 18:00:00 28.8 5 Este 16 Noroeste 0 992.9 -1.5 34
2017-08-30 17:00:00 29 5 Oeste 14 Sur 0 993.2 -1.6 33
2017-08-30 16:00:00 27.6 10 Nordeste 18 Norte 0 993.9 -1.3 39
2017-08-30 15:00:00 27 8 Nordeste 15 Norte 0 994.4 -0.9 44
2017-08-30 14:00:00 25.7 4 Sudoeste 11 Noroeste 0 994.8 -0.4 50
2017-08-30 13:00:00 23.9 4 Oeste 11 Noroeste 0 995.2 0.1 63
2017-08-30 12:00:00 21.8 8 Noroeste 14 Noroeste 0 995.3 0.5 71
2017-08-30 11:00:00 19.7 2 Nordeste 8 Norte 0 995.2 1 80
2017-08-30 10:00:00 17.8 5 Noroeste 8 Oeste 0 995.1 1.4 93
2017-08-30 09:00:00 16.2 0 Calma 9 Este 0 994.8 1.4 96
2017-08-30 08:00:00 14.6 5 Este 8 Sudeste 0 994.2 1 100
2017-08-30 07:00:00 14.8 4 Norte 7 Norte 0 993.7 0.4 98
2017-08-30 06:00:00 15.1 3 Nordeste 7 Este 0 993.4 0 98
2017-08-30 05:00:00 15.8 2 Sudeste 6 Sudeste 0 993.2 -0.5 97
2017-08-30 04:00:00 16.4 4 Sur 7 Sudeste 0 993.3 -0.2 96
2017-08-30 03:00:00 16.5 4 Sudeste 7 Este 0 993.4 -0.1 97
2017-08-30 02:00:00 16.6 2 Nordeste 9 Sudeste 0 993.7 0.8 95
2017-08-30 01:00:00 16.6 3 Sur 6 Sudeste 0 993.5 1.6 94
2017-08-30 00:00:00 16.9 2 Sur 8 Este 0 993.5 2.4 93
2017-08-29 23:00:00 16.9 4 Este 6 Nordeste 0 992.9 0.8 93
2017-08-29 22:00:00 17.7 3 Sur 16 Norte 0 991.9 0.2 89
2017-08-29 21:00:00 18.6 5 Sudoeste 18 Sur 2 991.1 0.7 82
2017-08-29 20:00:00 18 4 Oeste 21 Norte 3.8 992.1 1.7 80
2017-08-29 19:00:00 20.8 20 Nordeste 51 Este 0 991.7 0.7 55
2017-08-29 18:00:00 27.2 7 Sudoeste 17 Oeste 0 990.4 -1.5 39
2017-08-29 17:00:00 27.7 6 Sudoeste 13 Sur 0 990.4 -2.1 38
2017-08-29 16:00:00 27.2 8 Este 20 Este 0 991 -2.2 41
2017-08-29 15:00:00 26.1 5 Este 22 Noroeste 0 991.9 -1.6 46
2017-08-29 14:00:00 25.5 6 Oeste 14 Sur 0 992.5 -1.3 52
2017-08-29 13:00:00 24.2 6 Sudoeste 14 Oeste 0 993.2 -0.2 59
2017-08-29 12:00:00 22.4 6 Oeste 14 Noroeste 0 993.5 0.6 63
2017-08-29 11:00:00 20.9 6 Oeste 13 Noroeste 0 993.8 1.4 78
2017-08-29 10:00:00 19 8 Oeste 11 Oeste 0.2 993.4 1.3 89
2017-08-29 09:00:00 17.8 5 Oeste 8 Oeste 0.6 992.9 0.9 93
2017-08-29 08:00:00 17.1 6 Noroeste 9 Noroeste 0 992.4 0.2 96
2017-08-29 07:00:00 17.6 3 Sudoeste 7 Sur 0 992.1 -0.8 96
2017-08-29 06:00:00 18 3 Sudeste 8 Oeste 0.2 992 -0.9 94
2017-08-29 05:00:00 18.3 3 Sudoeste 5 Sudoeste 0 992.2 -1.3 93
2017-08-29 04:00:00 18.3 3 Oeste 10 Norte 0.2 992.9 -0.7 95
2017-08-29 03:00:00 18.6 6 Nordeste 8 Nordeste 0 992.9 -0.3 94
2017-08-29 02:00:00 18.6 0 Calma 6 Noroeste 0.6 993.5 0.8 90
2017-08-29 01:00:00 18.7 4 Sudeste 12 Este 0 993.6 1.5 90
2017-08-29 00:00:00 18.6 5 Sudeste 10 Sudoeste 0.2 993.2 2 83
2017-08-28 23:00:00 18.6 6 Sudoeste 17 Sur 0.6 992.7 2.1 84
2017-08-28 22:00:00 20.7 7 Sudoeste 22 Oeste 0.2 992.1 2.2 73
2017-08-28 21:00:00 21.4 10 Oeste 37 Oeste 0 991.2 1.2 78
2017-08-28 20:00:00 26.3 15 Sudoeste 33 Sudoeste 0 990.6 0.2 48
2017-08-28 19:00:00 29.4 7 Sudoeste 23 Sudoeste 0 989.9 -1.2 30
2017-08-28 18:00:00 29.7 9 Sudoeste 29 Sudoeste 0 990 -1.8 28
2017-08-28 17:00:00 29.3 9 Sudoeste 27 Sur 0 990.4 -2 31
2017-08-28 16:00:00 29.2 8 Sudoeste 27 Sur 0 991.1 -1.9 32
2017-08-28 15:00:00 28.7 10 Sur 21 Sur 0 991.8 -1.3 34
2017-08-28 14:00:00 26.6 7 Sur 20 Oeste 0 992.4 -0.8 42
2017-08-28 13:00:00 25.6 8 Oeste 19 Oeste 0 993 0.1 47
2017-08-28 12:00:00 24.5 5 Oeste 15 Sudoeste 0 993.1 0.8 54
2017-08-28 11:00:00 22.4 5 Oeste 13 Sur 0 993.2 1.2 64
2017-08-28 10:00:00 21.1 6 Oeste 15 Oeste 0 992.9 0.9 70
2017-08-28 09:00:00 18.6 5 Sudoeste 12 Sudoeste 0 992.3 0.4 83
2017-08-28 08:00:00 17.4 6 Sudoeste 12 Sudoeste 0 992 0 87
2017-08-28 07:00:00 17.4 4 Sudoeste 10 Sur 0 992 0.4 81
2017-08-28 06:00:00 18 5 Sudoeste 14 Sudoeste 0 991.9 0.1 78
2017-08-28 05:00:00 18.5 6 Sudoeste 14 Sur 0 992 0.3 74
2017-08-28 04:00:00 19.4 5 Sudoeste 13 Sudoeste 0 991.6 0 67
2017-08-28 03:00:00 20.4 4 Sudoeste 14 Sudoeste 0 991.8 0.6 64
2017-08-28 02:00:00 21.8 6 Sudoeste 18 Sudoeste 0 991.7 1.1 62
2017-08-28 01:00:00 22.6 9 Oeste 21 Oeste 0 991.6 2 60
2017-08-28 00:00:00 23.3 9 Oeste 23 Oeste 0 991.2 2.4 57
2017-08-27 23:00:00 24 14 Oeste 24 Noroeste 0 990.6 2.2 52
2017-08-27 22:00:00 25.6 11 Oeste 22 Noroeste 0 989.6 1.1 39
2017-08-27 21:00:00 28.5 9 Oeste 24 Oeste 0 988.8 0.2 34
2017-08-27 20:00:00 30.5 14 Oeste 26 Oeste 0 988.4 -0.7 31
2017-08-27 19:00:00 31.5 17 Oeste 34 Sudoeste 0 988.5 -1 31
2017-08-27 18:00:00 32.4 14 Oeste 31 Oeste 0 988.6 -1.2 29
2017-08-27 17:00:00 31.8 10 Sudoeste 31 Sudoeste 0 989.1 -1.6 31
2017-08-27 16:00:00 31.3 12 Sudoeste 35 Sur 0 989.5 -1.4 34
2017-08-27 15:00:00 31.1 14 Sudoeste 29 Sudoeste 0 989.8 -1.5 36
2017-08-27 14:00:00 30.4 9 Sudoeste 30 Oeste 0 990.7 -0.6 39
2017-08-27 13:00:00 28.2 6 Sudoeste 21 Oeste 0 990.9 0 43
2017-08-27 12:00:00 26 5 Noroeste 11 Noroeste 0 991.3 1.2 45
2017-08-27 11:00:00 23.1 8 Oeste 18 Oeste 0 991.3 1.2 55
2017-08-27 10:00:00 21.9 6 Oeste 13 Oeste 0 990.9 1.9 62
2017-08-27 09:00:00 20.7 9 Oeste 22 Noroeste 0 990.1 0.7 65
2017-08-27 08:00:00 22.5 7 Oeste 16 Sudeste 0 990.1 0.4 54
2017-08-27 07:00:00 22.7 8 Sudeste 15 Este 0 989 -1 53
2017-08-27 06:00:00 23.2 4 Oeste 14 Oeste 0 989.4 -0.8 54
2017-08-27 05:00:00 23.4 9 Oeste 14 Noroeste 0 989.7 -0.2 47
2017-08-27 04:00:00 23.9 4 Sudoeste 12 Oeste 0 990 0.3 42
2017-08-27 03:00:00 24.3 4 Sudoeste 10 Sudoeste 0 990.2 0.2 39
2017-08-27 02:00:00 25.2 4 Sudoeste 10 Sudoeste 0 989.9 0.1 37
2017-08-27 01:00:00 26.5 4 Oeste 12 Oeste 0 989.7 0.6 34
2017-08-27 00:00:00 27.7 5 Oeste 17 Sudoeste 0 990 1.6 29
2017-08-26 23:00:00 28.5 9 Oeste 24 Oeste 0 989.8 1.3 27
2017-08-26 22:00:00 29.9 8 Oeste 26 Oeste 0 989.1 0.5 28
2017-08-26 21:00:00 32.1 4 Sudoeste 13 Oeste 0 988.4 -0.3 27
2017-08-26 20:00:00 33.9 5 Sudoeste 17 Noroeste 0 988.5 -0.7 23
2017-08-26 19:00:00 34.6 12 Oeste 23 Oeste 0 988.6 -1.6 22
2017-08-26 18:00:00 35.6 4 Sudoeste 22 Sudeste 0 988.7 -1.7 19
2017-08-26 17:00:00 35.5 10 Sur 32 Sur 0 989.2 -1.1 19
2017-08-26 16:00:00 34.2 6 Sudoeste 24 Sudoeste 0 990.2 -1 23
2017-08-26 15:00:00 32.7 8 Sudoeste 31 Sudoeste 0 990.4 -1.2 24
2017-08-26 14:00:00 31.9 8 Sudoeste 23 Este 0 990.3 -2.2 27
2017-08-26 13:00:00 29 12 Este 22 Este 0 991.2 -1.3 32
2017-08-26 12:00:00 26.1 5 Sur 22 Sur 0 991.6 -1.3 38
2017-08-26 11:00:00 23.5 11 Sur 25 Sur 0 992.5 -0.3 44
2017-08-26 10:00:00 20.1 7 Sudoeste 21 Oeste 0 992.5 1.1 56
2017-08-26 09:00:00 19.8 8 Noroeste 18 Sur 0 992.9 1.5 46
2017-08-26 08:00:00 19 4 Sur 16 Sudoeste 0 992.8 1.4 49
2017-08-26 07:00:00 18.3 4 Norte 8 Nordeste 0 991.4 -0.1 58
2017-08-26 06:00:00 19 3 Noroeste 4 Oeste 0 991.4 -0.4 51
2017-08-26 05:00:00 19.6 0 Calma 4 Sudeste 0 991.4 -0.8 46
2017-08-26 04:00:00 21.8 3 Oeste 8 Oeste 0 991.5 -0.7 41
2017-08-26 03:00:00 23.1 5 Oeste 9 Sudoeste 0 991.8 -0.2 37
2017-08-26 02:00:00 23.6 4 Sudoeste 9 Sudoeste 0 992.2 0.4 28
2017-08-26 01:00:00 24.9 4 Sudoeste 10 Sudoeste 0 992.2 0.8 20
2017-08-26 00:00:00 25.7 5 Sudoeste 9 Sudoeste 0 992 1.1 17
2017-08-25 23:00:00 26.4 4 Oeste 9 Sudoeste 0 991.8 0.9 16
2017-08-25 22:00:00 27.6 5 Oeste 12 Oeste 0 991.4 0.4 17
2017-08-25 21:00:00 29.8 9 Oeste 24 Oeste 0 990.9 0 15
2017-08-25 20:00:00 34.6 14 Oeste 24 Oeste 0 990.9 -0.3 13
2017-08-25 19:00:00 35.5 13 Sudoeste 25 Oeste 0 991 -1 13
2017-08-25 18:00:00 36 8 Sudoeste 28 Oeste 0 990.9 -1.6 17
2017-08-25 17:00:00 36.1 10 Oeste 23 Oeste 0 991.2 -1.8 16
2017-08-25 16:00:00 33.4 7 Oeste 18 Norte 0 992 -1.6 23
2017-08-25 15:00:00 32.8 7 Norte 18 Noroeste 0 992.5 -1.6 27
2017-08-25 14:00:00 31.3 6 Este 15 Nordeste 0 993 -1.2 29
2017-08-25 13:00:00 29.7 6 Nordeste 12 Este 0 993.6 -0.4 32
2017-08-25 12:00:00 26.8 4 Sur 8 Oeste 0 994.1 0 39
2017-08-25 11:00:00 23.3 5 Oeste 10 Oeste 0 994.2 0.4 52
2017-08-25 10:00:00 20.2 4 Noroeste 6 Noroeste 0 994 0.3 65
2017-08-25 09:00:00 18.1 2 Oeste 7 Noroeste 0 994.1 0.4 74
2017-08-25 08:00:00 16.7 5 Oeste 11 Oeste 0 993.8 -0.2 81
2017-08-25 07:00:00 17.8 8 Oeste 13 Oeste 0 993.7 -0.3 75
2017-08-25 06:00:00 18.7 8 Oeste 12 Oeste 0 993.7 -0.2 69
2017-08-25 05:00:00 20.1 5 Oeste 10 Oeste 0 994 -0.2 60
2017-08-25 04:00:00 21 6 Oeste 12 Sudoeste 0 994 -0.4 56
2017-08-25 03:00:00 21.8 4 Sudoeste 9 Oeste 0 993.9 -0.3 52
2017-08-25 02:00:00 23.2 4 Sudoeste 11 Oeste 0 994.2 0.3 48
2017-08-25 01:00:00 24 6 Oeste 18 Oeste 0 994.4 1.1 46
2017-08-25 00:00:00 25.4 11 Oeste 20 Oeste 0 994.2 1.5 42
2017-08-24 23:00:00 27.1 6 Oeste 12 Oeste 0 993.9 1.7 32
2017-08-24 22:00:00 28.2 6 Oeste 18 Oeste 0 993.3 1 29
2017-08-24 21:00:00 30 6 Oeste 20 Noroeste 0 992.7 -0.2 26
2017-08-24 20:00:00 32.4 16 Noroeste 24 Noroeste 0 992.2 -1 21
2017-08-24 19:00:00 34.2 13 Noroeste 25 Noroeste 0 992.3 -1.4 19
2017-08-24 18:00:00 34 17 Noroeste 27 Noroeste 0 992.9 -1.3 21
2017-08-24 17:00:00 34.7 12 Oeste 26 Noroeste 0 993.2 -1.4 21
2017-08-24 16:00:00 34.5 11 Oeste 26 Noroeste 0 993.7 -1.3 23
2017-08-24 15:00:00 32.5 8 Oeste 21 Noroeste 0 994.2 -1 27
2017-08-24 14:00:00 30.3 10 Oeste 17 Oeste 0 994.6 -0.6 32
2017-08-24 13:00:00 27.4 5 Oeste 15 Noroeste 0 995 0 43
2017-08-24 12:00:00 24.3 8 Oeste 15 Noroeste 0 995.2 0.5 53
2017-08-24 11:00:00 22.1 7 Oeste 14 Noroeste 0 995.2 1 62
2017-08-24 10:00:00 19.3 6 Oeste 12 Noroeste 0 995 1.3 75
2017-08-24 09:00:00 17.2 6 Noroeste 10 Oeste 0 994.7 1.1 85
2017-08-24 08:00:00 16.5 7 Oeste 16 Oeste 0 994.2 0.7 85
2017-08-24 07:00:00 16.9 8 Oeste 20 Oeste 0 993.7 0.3 84
2017-08-24 06:00:00 17.8 12 Oeste 19 Oeste 0 993.6 0.2 80
2017-08-24 05:00:00 18.9 9 Oeste 13 Noroeste 0 993.5 0 73
2017-08-24 04:00:00 20.6 6 Oeste 11 Oeste 0 993.4 -0.1 56
2017-08-24 03:00:00 22.4 3 Sudoeste 14 Oeste 0 993.4 0.3 49
2017-08-24 02:00:00 24.3 8 Oeste 15 Oeste 0 993.5 0.8 44
2017-08-24 01:00:00 25.5 5 Oeste 18 Oeste 0 993.5 1.5 43
2017-08-24 00:00:00 26.8 10 Oeste 22 Oeste 0 993.1 1.8 42
2017-08-23 23:00:00 28.6 14 Oeste 26 Oeste 0 992.7 1.6 39
2017-08-23 22:00:00 30 10 Oeste 19 Oeste 0 992 0.7 31
2017-08-23 21:00:00 34.2 12 Oeste 20 Oeste 0 991.3 -0.1 22
2017-08-23 20:00:00 36.9 12 Sudoeste 24 Oeste 0 991.1 -0.8 17
2017-08-23 19:00:00 37.9 10 Oeste 28 Oeste 0 991.3 -1.1 17
2017-08-23 18:00:00 38.5 14 Oeste 29 Oeste 0 991.4 -1.5 15
2017-08-23 17:00:00 38.2 9 Oeste 32 Oeste 0 991.9 -1.4 17
2017-08-23 16:00:00 38.4 12 Oeste 27 Oeste 0 992.4 -1.6 18
2017-08-23 15:00:00 37.5 11 Oeste 23 Oeste 0 992.9 -1.4 19
2017-08-23 14:00:00 35.9 10 Oeste 20 Oeste 0 993.3 -1 26
2017-08-23 13:00:00 33.3 7 Oeste 21 Oeste 0 994 0 30
2017-08-23 12:00:00 29.5 7 Noroeste 16 Noroeste 0 994.3 0.6 38
2017-08-23 11:00:00 26.9 5 Oeste 13 Noroeste 0 994.3 1 42
2017-08-23 10:00:00 23.7 8 Noroeste 12 Noroeste 0 994 1.1 50
2017-08-23 09:00:00 21.8 6 Oeste 10 Oeste 0 993.7 1.1 55
2017-08-23 08:00:00 19.9 3 Sudoeste 7 Oeste 0 993.3 0.3 62
2017-08-23 07:00:00 20.4 3 Noroeste 4 Noroeste 0 992.9 -0.2 57
2017-08-23 06:00:00 21.5 2 Oeste 9 Noroeste 0 992.6 -0.8 54
2017-08-23 05:00:00 23.7 6 Oeste 15 Oeste 0 993 -0.4 47
2017-08-23 04:00:00 25.2 9 Oeste 15 Oeste 0 993.1 0 47
2017-08-23 03:00:00 26 6 Sudoeste 15 Oeste 0 993.4 0.6 50
2017-08-23 02:00:00 26.8 7 Oeste 13 Sudoeste 0 993.4 0.9 48
2017-08-23 01:00:00 27.4 6 Oeste 21 Oeste 0 993.1 1 47
2017-08-23 00:00:00 28.7 12 Oeste 22 Oeste 0 992.8 1.2 45
2017-08-22 23:00:00 29.8 11 Oeste 23 Oeste 0 992.5 0.9 38
2017-08-22 22:00:00 31.2 11 Oeste 17 Oeste 0 992.1 0.4 34
2017-08-22 21:00:00 34 10 Oeste 21 Noroeste 0 991.6 -0.5 28
2017-08-22 20:00:00 36.4 16 Noroeste 25 Noroeste 0 991.6 -1 24
2017-08-22 19:00:00 37.2 15 Noroeste 25 Noroeste 0 991.7 -1.6 24
2017-08-22 18:00:00 37.5 13 Noroeste 26 Noroeste 0 992.1 -2 26
2017-08-22 17:00:00 37.4 12 Noroeste 26 Noroeste 0 992.6 -2 25
2017-08-22 16:00:00 36.8 13 Noroeste 29 Noroeste 0 993.3 -2 28
2017-08-22 15:00:00 36.5 10 Oeste 25 Noroeste 0 994.1 -1.6 28
2017-08-22 14:00:00 34.6 12 Oeste 30 Oeste 0 994.6 -1.2 35
2017-08-22 13:00:00 33.1 10 Oeste 21 Noroeste 0 995.3 -0.4 37
2017-08-22 12:00:00 30.7 8 Oeste 17 Oeste 0 995.7 0.4 47
2017-08-22 11:00:00 28.6 8 Oeste 18 Oeste 0 995.8 1.1 56
2017-08-22 10:00:00 26.3 8 Sudoeste 18 Sudoeste 0 995.7 1.2 67
2017-08-22 09:00:00 24.5 10 Oeste 19 Oeste 0 995.3 1 73
2017-08-22 08:00:00 23.1 5 Sudoeste 10 Oeste 0 994.7 0.6 77
2017-08-22 07:00:00 23.8 3 Sudoeste 15 Oeste 0 994.5 0.7 73
2017-08-22 06:00:00 24.6 9 Oeste 18 Oeste 0 994.3 0.8 70
2017-08-22 05:00:00 25.7 7 Oeste 18 Oeste 0 994.1 0.7 66
2017-08-22 04:00:00 26.9 8 Oeste 18 Oeste 0 993.8 0.7 60
2017-08-22 03:00:00 27.5 7 Sudoeste 12 Oeste 0 993.5 0.8 54
2017-08-22 02:00:00 28.6 6 Sudoeste 14 Sudoeste 0 993.4 1.2 51
2017-08-22 01:00:00 30 10 Oeste 23 Oeste 0 993.1 1.4 48
2017-08-22 00:00:00 31.6 9 Sudoeste 20 Oeste 0 992.7 1.5 37